Time;durP1;ratioP1;P1;durP2;ratioP2;P2;SDS_P1;SDS_P2;PMS_P1;PMS_P2;Temp;Humidity;BMP_temperature;BMP_pressure;BME280_temperature;BME280_humidity;BME280_pressure;Samples;Min_cycle;Max_cycle;Signal;HPM_P1;HPM_P2
2021/01/15 00:01:55;;;;;;;14.68;9.25;;;;;;;-4.91;76.47;100311.46;1767558;79;25818;-81
2021/01/15 00:04:21;;;;;;;15.90;10.10;;;;;;;-4.93;76.37;100314.97;1786709;79;26366;-82
2021/01/15 00:06:48;;;;;;;16.40;10.28;;;;;;;-4.97;76.58;100321.08;1755693;79;25804;-81
2021/01/15 00:09:14;;;;;;;14.85;8.23;;;;;;;-5.00;76.74;100329.69;1766809;79;25813;-81
2021/01/15 00:11:41;;;;;;;13.08;8.30;;;;;;;-5.01;76.23;100330.59;1746189;79;25815;-81
2021/01/15 00:14:07;;;;;;;14.75;9.05;;;;;;;-5.05;76.72;100335.87;1770503;79;25784;-81
2021/01/15 00:16:34;;;;;;;15.53;8.68;;;;;;;-5.00;76.93;100335.23;1757730;81;25718;-81
2021/01/15 00:19:02;;;;;;;12.90;7.92;;;;;;;-4.99;76.57;100337.73;1758750;79;25735;-80
2021/01/15 00:21:32;;;;;;;14.93;9.35;;;;;;;-5.11;76.25;100336.97;1770430;79;25745;-81
2021/01/15 00:24:02;;;;;;;16.07;9.05;;;;;;;-5.19;76.35;100343.66;1754694;79;33157;-80
2021/01/15 00:26:30;;;;;;;;;;;;;;;-5.26;76.28;100343.56;1743755;79;25791;-80
2021/01/15 00:28:57;;;;;;;13.95;7.78;;;;;;;-5.32;76.67;100341.70;1718855;83;25916;-80
2021/01/15 00:31:35;;;;;;;18.30;9.67;;;;;;;-5.39;76.64;100339.42;1705375;83;26392;-81
2021/01/15 00:34:03;;;;;;;11.03;7.53;;;;;;;-5.42;76.79;100338.73;1696050;83;25836;-81
2021/01/15 00:36:29;;;;;;;16.37;10.40;;;;;;;-5.46;76.35;100341.83;1701423;83;25824;-80
2021/01/15 00:38:56;;;;;;;16.45;8.08;;;;;;;-5.54;76.51;100350.67;1714248;83;25844;-81
2021/01/15 00:41:23;;;;;;;15.93;8.47;;;;;;;-5.54;76.78;100354.50;1719661;83;25585;-81
2021/01/15 00:43:49;;;;;;;15.67;8.50;;;;;;;-5.62;76.46;100361.16;1699718;83;25790;-80
2021/01/15 00:46:33;;;;;;;16.67;9.65;;;;;;;-5.73;76.39;100365.87;1710280;83;26360;-80
2021/01/15 00:49:07;;;;;;;12.90;7.57;;;;;;;-5.79;76.59;100366.94;1717125;83;26514;-80
2021/01/15 00:51:35;;;;;;;13.70;8.68;;;;;;;-5.81;76.60;100373.38;1705297;83;26446;-80
2021/01/15 00:54:04;;;;;;;22.70;14.03;;;;;;;-5.88;76.61;100368.14;1709161;83;25805;-81
2021/01/15 00:56:31;;;;;;;14.20;8.07;;;;;;;-5.90;76.66;100369.08;1721437;83;26004;-80
2021/01/15 00:58:58;;;;;;;17.23;9.37;;;;;;;-5.91;76.59;100375.08;1709483;83;25930;-80
2021/01/15 01:01:26;;;;;;;12.50;8.40;;;;;;;-5.99;76.51;100386.02;1697426;83;25761;-80
2021/01/15 01:03:53;;;;;;;12.05;7.30;;;;;;;-6.07;76.36;100382.05;1686870;83;25845;-80
2021/01/15 01:06:22;;;;;;;14.90;8.30;;;;;;;-6.13;76.19;100383.56;1712105;83;26305;-80
2021/01/15 01:08:50;;;;;;;18.40;10.90;;;;;;;-6.20;76.42;100387.22;1721403;83;25781;-80
2021/01/15 01:11:22;;;;;;;13.68;8.10;;;;;;;-6.23;76.58;100378.44;1704806;83;25720;-80
2021/01/15 01:14:09;;;;;;;16.03;8.80;;;;;;;-6.30;76.42;100371.48;1714387;83;25737;-80
2021/01/15 01:16:36;;;;;;;15.80;9.40;;;;;;;-6.33;76.59;100380.92;1684965;83;26475;-80
2021/01/15 01:19:03;;;;;;;13.80;7.90;;;;;;;-6.42;76.29;100368.12;1683369;84;25791;-80
2021/01/15 01:21:32;;;;;;;15.70;8.10;;;;;;;-6.50;76.25;100377.74;1690270;83;25763;-80
2021/01/15 01:23:58;;;;;;;20.43;11.57;;;;;;;-6.60;76.21;100380.23;1687504;84;26497;-80
2021/01/15 01:26:25;;;;;;;16.20;8.97;;;;;;;-6.62;76.54;100378.20;1691553;83;25750;-80
2021/01/15 01:28:51;;;;;;;17.63;10.60;;;;;;;-6.62;76.31;100385.38;1673919;83;26874;-80
2021/01/15 01:31:18;;;;;;;17.70;9.17;;;;;;;-6.66;76.28;100391.89;1687358;83;26143;-79
2021/01/15 01:33:46;;;;;;;12.37;7.50;;;;;;;-6.67;76.40;100394.88;1691129;84;25683;-80
2021/01/15 01:36:13;;;;;;;15.17;9.33;;;;;;;-6.70;76.29;100389.91;1696943;82;25818;-79
2021/01/15 01:38:44;;;;;;;15.97;9.17;;;;;;;-6.62;76.74;100396.00;1691278;82;25891;-79
2021/01/15 01:41:11;;;;;;;24.33;13.53;;;;;;;-6.64;76.14;100399.84;1702133;82;26357;-79
2021/01/15 01:43:38;;;;;;;20.30;10.57;;;;;;;-6.72;76.13;100399.30;1706863;82;25786;-80
2021/01/15 01:46:07;;;;;;;14.37;8.23;;;;;;;-6.79;76.07;100403.78;1702747;83;25833;-80
2021/01/15 01:48:36;;;;;;;17.47;10.33;;;;;;;-6.82;76.04;100399.22;1694845;82;25880;-80
2021/01/15 01:51:04;;;;;;;39.07;21.23;;;;;;;-6.88;76.15;100403.25;1699860;82;25709;-80
2021/01/15 01:53:32;;;;;;;13.70;8.73;;;;;;;-6.89;76.44;100403.70;1706178;82;26592;-79
2021/01/15 01:56:19;;;;;;;13.90;7.87;;;;;;;-6.81;76.47;100411.06;1705576;83;25702;-80
2021/01/15 01:58:45;;;;;;;15.40;8.77;;;;;;;-6.81;76.26;100411.89;1719167;82;25862;-79
2021/01/15 02:01:11;;;;;;;16.50;9.20;;;;;;;-6.82;76.41;100415.32;1725718;82;25879;-80
2021/01/15 02:03:38;;;;;;;14.43;8.33;;;;;;;-6.82;76.48;100415.32;1734159;82;26415;-79
2021/01/15 02:06:05;;;;;;;14.43;8.18;;;;;;;-6.83;76.33;100413.64;1738373;81;25761;-80
2021/01/15 02:08:31;;;;;;;13.83;7.60;;;;;;;-6.84;76.39;100412.45;1729134;82;26303;-79
2021/01/15 02:11:09;;;;;;;16.63;8.70;;;;;;;-6.82;76.43;100418.28;1738267;82;25787;-79
2021/01/15 02:14:03;;;;;;;13.00;7.83;;;;;;;-6.84;76.34;100416.26;1737950;82;25911;-79
2021/01/15 02:16:31;;;;;;;16.70;8.63;;;;;;;-6.86;76.28;100429.00;1738053;82;25686;-80
2021/01/15 02:19:35;;;;;;;16.03;8.00;;;;;;;-7.02;76.28;100429.95;1720563;82;25930;-80
2021/01/15 02:22:54;;;;;;;13.13;7.77;;;;;;;-7.00;76.56;100437.54;1727167;80;26478;-79
2021/01/15 02:25:59;;;;;;;14.30;8.80;;;;;;;-7.06;76.57;100444.92;1686411;83;26419;-79
2021/01/15 02:29:08;;;;;;;13.53;8.27;;;;;;;-7.11;76.73;100444.69;1700838;82;25825;-80
2021/01/15 02:31:49;;;;;;;16.48;8.80;;;;;;;-7.13;76.94;100456.16;1667887;84;25748;-80
2021/01/15 02:34:39;;;;;;;16.23;9.20;;;;;;;-7.13;77.14;100450.25;1706109;83;25859;-80
2021/01/15 02:37:22;;;;;;;13.13;8.18;;;;;;;-7.08;77.28;100449.22;1670800;84;25951;-80
2021/01/15 02:40:10;;;;;;;18.47;10.77;;;;;;;-6.99;77.44;100445.53;1657713;84;25803;-79
2021/01/15 02:42:39;;;;;;;14.80;9.07;;;;;;;-6.96;77.33;100453.91;1668741;84;25815;-79
2021/01/15 02:48:49;;;;;;;13.37;8.67;;;;;;;-6.89;77.54;100458.32;1625394;86;25769;-80
2021/01/15 02:51:22;;;;;;;14.47;7.70;;;;;;;-6.95;77.26;100460.63;1627457;86;25853;-80
2021/01/15 02:53:48;;;;;;;17.07;8.63;;;;;;;-7.03;77.20;100465.58;1632617;86;25722;-80
2021/01/15 02:56:15;;;;;;;16.63;8.57;;;;;;;-7.11;77.34;100455.67;1630960;86;25772;-80
2021/01/15 02:58:41;;;;;;;16.43;9.37;;;;;;;-7.16;77.37;100453.27;1623057;86;25916;-80
2021/01/15 03:01:08;;;;;;;12.93;7.00;;;;;;;-7.19;77.51;100462.27;1592147;88;25709;-80
2021/01/15 03:03:57;;;;;;;14.90;7.93;;;;;;;-7.25;77.57;100454.03;1574241;89;25972;-80
2021/01/15 03:06:39;;;;;;;15.03;8.87;;;;;;;-7.32;77.72;100451.29;1596910;88;25850;-79
2021/01/15 03:09:08;;;;;;;15.93;9.50;;;;;;;-7.23;77.81;100450.98;1657541;84;25630;-80
2021/01/15 03:11:37;;;;;;;15.10;7.93;;;;;;;-7.17;77.87;100457.16;1642102;86;25769;-80
2021/01/15 03:14:07;;;;;;;15.85;8.95;;;;;;;-7.12;77.84;100455.70;1673129;84;25840;-80
2021/01/15 03:16:36;;;;;;;15.58;9.13;;;;;;;-7.11;77.86;100451.86;1661676;84;25843;-80
2021/01/15 03:19:02;;;;;;;16.33;8.90;;;;;;;-7.01;78.09;100447.28;1659427;84;25712;-80
2021/01/15 03:21:30;;;;;;;15.73;8.37;;;;;;;-6.93;77.90;100454.21;1649777;85;25842;-80
2021/01/15 03:24:41;;;;;;;20.17;9.87;;;;;;;-6.89;77.85;100448.61;1657938;84;25916;-80
2021/01/15 03:27:08;;;;;;;30.53;12.20;;;;;;;-6.84;77.94;100455.64;1659591;84;25888;-80
2021/01/15 03:29:34;;;;;;;29.87;13.47;;;;;;;-6.77;77.79;100458.34;1667284;84;25720;-80
2021/01/15 03:32:00;;;;;;;42.07;16.77;;;;;;;-6.76;77.73;100460.02;1657085;84;25832;-80
2021/01/15 03:34:27;;;;;;;36.83;14.87;;;;;;;-6.72;77.69;100454.75;1650926;84;25955;-80
2021/01/15 03:36:53;;;;;;;42.13;17.83;;;;;;;-6.68;77.76;100455.91;1656478;84;25792;-80
2021/01/15 03:39:20;;;;;;;43.40;18.27;;;;;;;-6.68;77.52;100459.72;1654121;84;26875;-80
2021/01/15 03:41:46;;;;;;;43.80;18.53;;;;;;;-6.71;77.67;100458.97;1655319;84;25374;-80
2021/01/15 03:44:13;;;;;;;26.27;14.10;;;;;;;-6.75;77.53;100459.94;1659975;84;25798;-80
2021/01/15 03:46:39;;;;;;;32.20;15.57;;;;;;;-6.78;77.42;100465.58;1660817;84;25784;-80
2021/01/15 03:49:05;;;;;;;25.27;13.13;;;;;;;-6.84;77.39;100461.98;1659937;84;26128;-80
2021/01/15 03:51:32;;;;;;;20.40;11.33;;;;;;;-6.90;77.52;100464.71;1660316;83;25736;-79
2021/01/15 03:53:58;;;;;;;21.93;10.17;;;;;;;-6.91;77.65;100465.16;1679689;84;26489;-80
2021/01/15 03:56:25;;;;;;;17.77;9.43;;;;;;;-6.89;77.73;100467.66;1671362;84;26268;-80
2021/01/15 03:58:51;;;;;;;18.10;9.90;;;;;;;-6.86;77.90;100464.56;1665353;84;25734;-80
2021/01/15 04:01:18;;;;;;;16.43;9.50;;;;;;;-6.82;77.82;100453.84;1674726;84;25756;-80
2021/01/15 04:03:44;;;;;;;15.30;9.80;;;;;;;-6.86;77.76;100451.04;1668358;84;26370;-80
2021/01/15 04:06:10;;;;;;;15.93;9.27;;;;;;;-6.88;77.65;100458.70;1679780;84;26774;-80
2021/01/15 04:08:37;;;;;;;16.70;9.03;;;;;;;-6.89;77.70;100456.23;1679552;84;25671;-80
2021/01/15 04:11:03;;;;;;;20.33;9.47;;;;;;;-7.01;77.52;100448.56;1679790;84;25748;-80
2021/01/15 04:13:30;;;;;;;15.97;9.87;;;;;;;-7.04;77.96;100455.88;1671346;84;25743;-80
2021/01/15 04:15:59;;;;;;;17.07;8.47;;;;;;;-7.05;77.90;100452.09;1666992;83;25659;-80
2021/01/15 04:18:26;;;;;;;17.25;10.30;;;;;;;-7.09;77.92;100455.19;1664968;84;25620;-80
2021/01/15 04:20:53;;;;;;;14.17;9.50;;;;;;;-7.08;78.11;100439.51;1662620;84;25784;-81
2021/01/15 04:23:19;;;;;;;15.87;10.07;;;;;;;-7.06;78.18;100457.63;1678231;84;25779;-81
2021/01/15 04:25:46;;;;;;;16.47;9.27;;;;;;;-7.08;78.09;100455.56;1679761;84;25701;-81
2021/01/15 04:28:12;;;;;;;18.13;10.20;;;;;;;-7.07;78.22;100452.13;1679325;84;25735;-81
2021/01/15 04:30:38;;;;;;;18.80;10.27;;;;;;;-7.03;78.33;100457.96;1679953;84;25820;-81
2021/01/15 04:33:05;;;;;;;15.80;9.10;;;;;;;-7.05;78.12;100454.64;1680855;83;25340;-80
2021/01/15 04:35:31;;;;;;;17.07;9.10;;;;;;;-7.02;78.19;100448.19;1679396;84;25756;-80
2021/01/15 04:37:58;;;;;;;16.80;9.67;;;;;;;-7.00;78.21;100451.51;1678905;84;25643;-80
2021/01/15 04:40:25;;;;;;;16.10;8.97;;;;;;;-6.92;78.36;100451.63;1679557;84;26435;-80
2021/01/15 04:42:54;;;;;;;22.83;10.70;;;;;;;-6.89;78.09;100460.04;1679138;84;25868;-80
2021/01/15 04:45:21;;;;;;;25.95;13.43;;;;;;;-6.92;78.16;100449.54;1685757;83;26499;-80
2021/01/15 04:47:48;;;;;;;23.40;11.37;;;;;;;-6.96;78.02;100455.17;1681652;83;26388;-80
2021/01/15 04:50:17;;;;;;;24.20;12.83;;;;;;;-7.02;78.02;100456.63;1672930;84;25884;-81
2021/01/15 04:52:52;;;;;;;19.20;9.80;;;;;;;-6.98;78.28;100463.28;1677113;84;25679;-80
2021/01/15 04:55:22;;;;;;;18.83;9.13;;;;;;;-6.93;78.21;100468.19;1679846;84;25763;-80
2021/01/15 04:57:53;;;;;;;19.32;10.93;;;;;;;-6.93;78.33;100514.77;1677266;84;25636;-80
2021/01/15 05:00:24;;;;;;;18.60;9.63;;;;;;;-6.96;78.31;100485.66;1683044;84;26653;-80
2021/01/15 05:02:52;;;;;;;21.60;11.43;;;;;;;-6.98;78.29;100500.11;1677957;84;25748;-80
2021/01/15 05:05:27;;;;;;;23.23;11.57;;;;;;;-7.01;78.39;100484.97;1677046;84;25902;-80
2021/01/15 05:08:14;;;;;;;22.80;10.77;;;;;;;-7.00;78.48;100484.08;1693012;83;26414;-80
2021/01/15 05:10:48;;;;;;;21.87;10.07;;;;;;;-6.94;78.68;100499.11;1689315;83;25309;-80
2021/01/15 05:13:17;;;;;;;20.47;9.80;;;;;;;-6.93;78.52;100495.71;1689088;83;26482;-81
2021/01/15 05:15:46;;;;;;;24.30;11.13;;;;;;;-6.98;78.49;100482.77;1689686;83;25872;-80
2021/01/15 05:18:16;;;;;;;22.02;10.68;;;;;;;-6.95;78.46;100485.20;1681673;83;25876;-80
2021/01/15 05:20:46;;;;;;;18.42;10.55;;;;;;;-6.97;78.45;100481.88;1689496;83;25853;-80
2021/01/15 05:23:15;;;;;;;20.65;10.65;;;;;;;-6.99;78.50;100473.03;1688947;83;25760;-80
2021/01/15 05:25:47;;;;;;;20.67;10.73;;;;;;;-6.95;78.64;100475.05;1689293;83;25722;-81
2021/01/15 05:28:18;;;;;;;18.87;9.63;;;;;;;-6.95;78.56;100471.23;1682948;83;25838;-80
2021/01/15 05:30:51;;;;;;;20.63;10.23;;;;;;;-6.95;78.42;100472.51;1689411;83;25734;-80
2021/01/15 05:33:18;;;;;;;21.67;11.40;;;;;;;-7.01;78.44;100474.81;1683856;83;25779;-80
2021/01/15 05:35:51;;;;;;;20.13;11.13;;;;;;;-6.98;78.64;100481.50;1678813;83;26278;-80
2021/01/15 05:38:21;;;;;;;24.20;11.80;;;;;;;-6.98;78.52;100475.16;1677506;83;25709;-80
2021/01/15 05:40:49;;;;;;;;;;;;;;;-7.04;78.51;100480.00;1691202;83;25870;-80
2021/01/15 05:43:25;;;;;;;23.47;12.43;;;;;;;-7.10;78.59;100476.81;1690587;83;26448;-80
2021/01/15 05:46:18;;;;;;;21.53;10.87;;;;;;;-7.15;78.75;100479.08;1674569;83;25675;-80
2021/01/15 05:48:51;;;;;;;19.63;11.17;;;;;;;-7.15;78.87;100473.14;1690325;83;25733;-80
2021/01/15 05:51:35;;;;;;;18.40;10.07;;;;;;;-7.18;78.93;100477.87;1690326;83;25846;-80
2021/01/15 05:54:04;;;;;;;29.67;13.13;;;;;;;-7.20;79.02;100484.73;1678970;83;25734;-80
2021/01/15 05:56:45;;;;;;;23.87;11.30;;;;;;;-7.23;79.22;100482.72;1677395;83;25786;-80
2021/01/15 05:59:19;;;;;;;23.40;12.67;;;;;;;-7.27;79.26;100474.37;1679020;83;26308;-80
2021/01/15 06:01:58;;;;;;;22.50;11.83;;;;;;;-7.26;79.40;100488.72;1672715;83;25833;-80
2021/01/15 06:04:39;;;;;;;19.60;10.80;;;;;;;-7.25;79.54;100486.59;1677590;83;25728;-80
2021/01/15 06:07:16;;;;;;;22.63;11.80;;;;;;;-7.25;79.69;100481.52;1678241;84;25754;-80
2021/01/15 06:09:45;;;;;;;17.13;10.67;;;;;;;-7.24;79.72;100487.42;1683032;83;26463;-80
2021/01/15 06:12:18;;;;;;;20.70;11.30;;;;;;;-7.24;79.79;100495.03;1667237;84;25824;-80
2021/01/15 06:14:50;;;;;;;19.87;12.03;;;;;;;-7.27;79.77;100476.92;1662023;84;25752;-80
2021/01/15 06:17:20;;;;;;;26.13;11.10;;;;;;;-7.25;79.83;100495.48;1663922;84;25837;-80
2021/01/15 06:19:53;;;;;;;22.37;11.80;;;;;;;-7.22;79.98;100499.63;1655902;85;25671;-81
2021/01/15 06:22:44;;;;;;;22.60;11.37;;;;;;;-7.21;79.88;100493.22;1657730;84;25668;-81
2021/01/15 06:25:30;;;;;;;;;;;;;;;-7.21;79.84;100498.30;1652855;85;25796;-80
2021/01/15 06:28:03;;;;;;;32.13;14.57;;;;;;;-7.19;79.89;100503.34;1657351;84;26347;-80
2021/01/15 06:30:35;;;;;;;27.30;13.60;;;;;;;-7.20;79.93;100510.12;1657368;84;25706;-80
2021/01/15 06:33:14;;;;;;;30.00;13.80;;;;;;;-7.17;79.95;100509.20;1650071;85;25951;-80
2021/01/15 06:35:43;;;;;;;29.10;14.20;;;;;;;-7.15;80.02;100499.39;1648471;84;26430;-80
2021/01/15 06:38:15;;;;;;;35.88;16.52;;;;;;;-7.13;79.90;100506.94;1656577;85;25762;-80
2021/01/15 06:40:49;;;;;;;31.13;14.07;;;;;;;-7.05;80.01;100507.53;1641108;84;26399;-80
2021/01/15 06:43:33;;;;;;;30.77;14.47;;;;;;;-6.99;79.86;100507.32;1658117;84;25758;-80
2021/01/15 06:46:03;;;;;;;22.20;12.23;;;;;;;-6.99;79.73;100514.11;1657123;84;26457;-80
2021/01/15 06:48:35;;;;;;;24.40;12.45;;;;;;;-6.96;79.74;100516.55;1658203;84;25702;-80
2021/01/15 06:51:07;;;;;;;21.67;12.50;;;;;;;-6.93;79.69;100518.58;1659902;84;25812;-81
2021/01/15 06:53:39;;;;;;;24.30;12.70;;;;;;;-6.91;79.63;100524.86;1642938;85;25892;-80
2021/01/15 06:56:08;;;;;;;23.00;12.37;;;;;;;-6.90;79.67;100534.16;1639450;86;26423;-80
2021/01/15 06:58:42;;;;;;;25.87;12.83;;;;;;;-6.85;79.65;100532.72;1636579;85;25554;-80
2021/01/15 07:01:25;;;;;;;31.17;15.87;;;;;;;-6.85;79.56;100530.17;1638194;86;26348;-80
2021/01/15 07:04:22;;;;;;;37.77;16.87;;;;;;;-6.85;79.66;100546.25;1640669;86;25824;-80
2021/01/15 07:07:14;;;;;;;39.53;17.80;;;;;;;-6.81;79.59;100546.55;1631837;86;25671;-81
2021/01/15 07:09:44;;;;;;;40.93;19.23;;;;;;;-6.84;79.46;100544.56;1626677;86;25943;-80
2021/01/15 07:12:14;;;;;;;40.80;18.77;;;;;;;-6.85;79.60;100537.35;1634937;85;25714;-80
2021/01/15 07:14:54;;;;;;;49.53;19.00;;;;;;;-6.78;79.60;100548.98;1628833;86;26662;-80
2021/01/15 07:17:36;;;;;;;40.20;18.70;;;;;;;-6.74;79.67;100552.25;1633683;85;25746;-80
2021/01/15 07:20:20;;;;;;;42.00;19.03;;;;;;;-6.67;79.74;100546.09;1632137;85;25831;-80
2021/01/15 07:22:54;;;;;;;35.07;15.83;;;;;;;-6.63;79.69;100552.75;1622919;85;25841;-80
2021/01/15 07:25:22;;;;;;;30.83;15.33;;;;;;;-6.54;79.62;100546.52;1636017;86;25800;-80
2021/01/15 07:27:49;;;;;;;31.37;14.10;;;;;;;-6.51;79.48;100549.78;1632784;85;25823;-80
2021/01/15 07:30:23;;;;;;;29.80;14.27;;;;;;;-6.50;79.45;100542.53;1628892;85;25771;-80
2021/01/15 07:32:52;;;;;;;38.23;17.27;;;;;;;-6.47;79.21;100547.95;1643733;85;25746;-80
2021/01/15 07:35:21;;;;;;;33.03;16.30;;;;;;;-6.48;79.30;100543.77;1645200;85;26409;-80
2021/01/15 07:37:48;;;;;;;31.07;16.60;;;;;;;-6.48;79.13;100550.94;1640355;85;25862;-80
2021/01/15 07:40:21;;;;;;;23.30;12.17;;;;;;;-6.50;79.01;100548.06;1643357;85;25849;-81
2021/01/15 07:42:56;;;;;;;36.10;18.10;;;;;;;-6.49;79.03;100552.28;1645023;85;25975;-80
2021/01/15 07:45:31;;;;;;;25.60;13.33;;;;;;;-6.49;79.10;100558.19;1640416;85;25759;-80
2021/01/15 07:48:04;;;;;;;25.17;13.57;;;;;;;-6.47;79.10;100547.95;1649234;85;25704;-80
2021/01/15 07:50:44;;;;;;;24.20;13.70;;;;;;;-6.48;79.03;100549.67;1643466;85;26389;-80
2021/01/15 07:53:23;;;;;;;27.63;13.60;;;;;;;-6.44;79.10;100545.75;1649886;84;27049;-80
2021/01/15 07:55:58;;;;;;;22.77;14.47;;;;;;;-6.42;79.06;100542.72;1652507;84;25883;-80
2021/01/15 07:58:38;;;;;;;22.30;13.17;;;;;;;-6.42;78.95;100549.08;1651870;84;25658;-80
2021/01/15 08:01:12;;;;;;;21.85;13.03;;;;;;;-6.39;79.12;100545.98;1655933;84;26425;-80
2021/01/15 08:03:47;;;;;;;23.80;11.73;;;;;;;-6.35;79.23;100542.91;1647775;84;26364;-80
2021/01/15 08:06:17;;;;;;;27.40;13.63;;;;;;;-6.28;79.28;100548.16;1662127;84;25884;-80
2021/01/15 08:09:07;;;;;;;28.52;15.45;;;;;;;-6.24;79.08;100543.81;1655499;84;25928;-80
2021/01/15 08:11:35;;;;;;;31.00;16.42;;;;;;;-6.26;78.98;100536.22;1651058;84;25677;-80
2021/01/15 08:14:21;;;;;;;29.97;13.50;;;;;;;-6.24;79.05;100539.55;1657200;84;25682;-80
2021/01/15 08:16:49;;;;;;;23.00;12.10;;;;;;;-6.21;79.22;100540.71;1658545;84;25785;-80
2021/01/15 08:19:23;;;;;;;30.63;14.83;;;;;;;-6.17;78.88;100540.97;1654003;84;25790;-80
2021/01/15 08:21:50;;;;;;;32.53;14.97;;;;;;;-6.19;78.86;100543.18;1663410;84;25775;-80
2021/01/15 08:24:22;;;;;;;29.30;15.47;;;;;;;-6.16;79.01;100536.30;1649946;84;26295;-80
2021/01/15 08:26:52;;;;;;;32.90;16.70;;;;;;;-6.11;79.12;100533.15;1654879;84;25848;-80
2021/01/15 08:29:24;;;;;;;27.93;14.73;;;;;;;-6.08;78.93;100529.22;1665383;83;25884;-79
2021/01/15 08:31:56;;;;;;;33.93;16.23;;;;;;;-6.09;78.81;100531.35;1672982;83;25702;-80
2021/01/15 08:34:21;;;;;;;25.17;14.93;;;;;;;-6.07;78.90;100532.59;1657387;84;25643;-80
2021/01/15 08:36:52;;;;;;;28.53;14.90;;;;;;;-6.06;78.97;100537.63;1658277;84;26363;-80
2021/01/15 08:39:18;;;;;;;31.67;17.10;;;;;;;-6.00;79.14;100539.13;1657796;84;26571;-80
2021/01/15 08:41:58;;;;;;;36.53;18.20;;;;;;;-5.93;79.26;100538.45;1649262;84;25854;-80
2021/01/15 08:44:34;;;;;;;31.82;17.45;;;;;;;-5.92;79.02;100540.06;1662702;84;25827;-80
2021/01/15 08:46:54;;;;;;;27.00;16.40;;;;;;;-5.95;78.76;100535.94;1676896;83;30907;-80
2021/01/15 08:49:21;;;;;;;24.93;13.97;;;;;;;-5.92;78.98;100543.88;1678539;84;25579;-80
2021/01/15 08:51:50;;;;;;;34.77;16.97;;;;;;;-5.95;78.64;100536.39;1657229;84;25734;-80
2021/01/15 08:54:19;;;;;;;34.65;20.25;;;;;;;-5.97;78.88;100541.55;1641160;84;25861;-80
2021/01/15 08:56:49;;;;;;;36.57;19.03;;;;;;;-5.97;79.05;100544.09;1668642;84;26739;-80
2021/01/15 08:59:28;;;;;;;34.18;18.37;;;;;;;-5.92;78.89;100545.15;1673784;84;26499;-80
2021/01/15 09:02:01;;;;;;;28.73;16.62;;;;;;;-5.96;78.85;100543.65;1673349;84;25904;-80
2021/01/15 09:04:34;;;;;;;29.37;15.30;;;;;;;-6.00;78.79;100549.30;1672379;84;25789;-80
2021/01/15 09:07:09;;;;;;;32.80;15.87;;;;;;;-5.97;79.00;100558.55;1677766;84;25786;-80
2021/01/15 09:09:36;;;;;;;33.70;14.97;;;;;;;-5.92;79.01;100560.42;1673805;84;26393;-81
2021/01/15 09:12:07;;;;;;;30.30;15.97;;;;;;;-5.87;78.86;100563.63;1679238;84;25889;-80
2021/01/15 09:14:35;;;;;;;;;;;;;;;-5.87;78.95;100565.73;1676118;84;25795;-80
2021/01/15 09:17:07;;;;;;;26.73;13.80;;;;;;;-5.85;78.89;100570.33;1675225;84;25747;-81
2021/01/15 09:19:35;;;;;;;30.93;13.77;;;;;;;-5.84;78.90;100567.33;1673707;84;25727;-80
2021/01/15 09:22:09;;;;;;;27.10;13.13;;;;;;;-5.82;78.81;100568.94;1678455;84;25722;-81
2021/01/15 09:24:36;;;;;;;31.87;15.17;;;;;;;-5.83;78.64;100570.28;1676863;84;25488;-80
2021/01/15 09:27:06;;;;;;;28.40;14.50;;;;;;;-5.83;78.66;100576.20;1670658;84;26388;-80
2021/01/15 09:29:34;;;;;;;26.50;13.88;;;;;;;-5.80;78.80;100571.44;1677555;84;25761;-80
2021/01/15 09:32:04;;;;;;;23.63;14.03;;;;;;;-5.76;78.74;100568.33;1678043;84;25801;-81
2021/01/15 09:34:31;;;;;;;22.52;13.30;;;;;;;-5.73;78.79;100566.52;1675535;84;26390;-80
2021/01/15 09:36:59;;;;;;;27.00;14.97;;;;;;;-5.72;78.72;100559.27;1677937;84;25768;-81
2021/01/15 09:39:26;;;;;;;29.57;15.57;;;;;;;-5.67;78.78;100560.38;1671071;84;25545;-80
2021/01/15 09:41:57;;;;;;;30.03;17.30;;;;;;;-5.64;78.68;100561.53;1676980;84;26353;-81
2021/01/15 09:44:27;;;;;;;30.37;16.80;;;;;;;-5.60;78.90;100553.70;1671574;84;25759;-80
2021/01/15 09:46:59;;;;;;;27.22;16.07;;;;;;;-5.54;78.71;100558.18;1670180;84;25778;-81
2021/01/15 09:49:27;;;;;;;28.67;16.33;;;;;;;-5.55;78.64;100552.27;1673392;84;25441;-81
2021/01/15 09:51:53;;;;;;;23.17;12.47;;;;;;;-5.52;78.44;100553.87;1665992;84;26664;-81
2021/01/15 09:54:20;;;;;;;33.00;17.07;;;;;;;-5.51;78.56;100550.42;1673321;84;25787;-81
2021/01/15 09:56:47;;;;;;;34.67;19.63;;;;;;;-5.48;78.50;100549.89;1677960;83;25745;-81
2021/01/15 09:59:17;;;;;;;29.67;17.37;;;;;;;-5.48;78.62;100541.42;1673302;83;26422;-81
2021/01/15 10:01:49;;;;;;;;;;;;;;;-5.40;79.00;100538.14;1652547;84;25675;-81
2021/01/15 10:04:13;;;;;;;26.13;15.73;;;;;;;-5.35;78.30;100541.31;1651040;84;25776;-80
2021/01/15 10:06:42;;;;;;;23.00;14.43;;;;;;;-5.35;78.48;100537.48;1651717;84;25820;-81
2021/01/15 10:09:10;;;;;;;27.17;13.98;;;;;;;-5.34;78.01;100535.34;1647066;84;25816;-81
2021/01/15 10:11:47;;;;;;;23.87;13.53;;;;;;;-5.33;78.10;100534.45;1654515;84;26525;-81
2021/01/15 10:14:16;;;;;;;24.77;13.20;;;;;;;-5.31;77.89;100537.77;1655566;84;25705;-81
2021/01/15 10:16:47;;;;;;;23.27;11.85;;;;;;;-5.30;77.99;100526.68;1659137;84;25813;-82
2021/01/15 10:19:14;;;;;;;20.37;12.23;;;;;;;-5.28;77.63;100530.45;1650898;84;25564;-82
2021/01/15 10:21:40;;;;;;;23.70;13.90;;;;;;;-5.31;77.42;100533.13;1657882;84;25786;-81
2021/01/15 10:24:09;;;;;;;25.20;13.90;;;;;;;-5.33;77.50;100522.16;1652013;84;26586;-81
2021/01/15 10:26:37;;;;;;;27.37;14.97;;;;;;;-5.31;77.77;100512.30;1646642;84;26102;-81
2021/01/15 10:29:11;;;;;;;30.40;16.07;;;;;;;-5.26;77.85;100500.22;1652890;84;25601;-81
2021/01/15 10:31:54;;;;;;;22.43;13.43;;;;;;;-5.22;77.57;100483.91;1644423;84;25784;-81
2021/01/15 10:34:18;;;;;;;22.63;11.80;;;;;;;-5.29;76.39;100457.04;1654629;84;26435;-81
2021/01/15 10:36:46;;;;;;;30.97;15.33;;;;;;;-5.29;76.39;100457.04;1649499;84;26468;-81
2021/01/15 10:39:14;;;;;;;33.95;14.03;;;;;;;-5.30;76.30;100460.45;1656877;84;25730;-81
2021/01/15 10:41:45;;;;;;;25.67;13.07;;;;;;;-5.24;76.99;100467.02;1653195;84;25741;-81
2021/01/15 10:44:16;;;;;;;24.77;13.53;;;;;;;-5.16;76.77;100463.72;1651403;84;25834;-81
2021/01/15 10:46:52;;;;;;;28.37;13.40;;;;;;;-5.10;76.25;100461.36;1657322;84;25713;-81
2021/01/15 10:49:21;;;;;;;23.30;12.97;;;;;;;-5.07;75.93;100452.34;1654331;84;26378;-82
2021/01/15 10:51:50;;;;;;;24.02;12.33;;;;;;;-5.00;75.74;100446.09;1651850;84;25675;-81
2021/01/15 10:54:17;;;;;;;22.23;13.20;;;;;;;-4.95;74.94;100462.84;1651114;84;26618;-81
2021/01/15 10:56:47;;;;;;;27.23;14.50;;;;;;;-4.87;75.49;100466.34;1633132;85;25905;-81
2021/01/15 10:59:14;;;;;;;;;;;;;;;-4.77;75.81;100471.91;1644220;85;25355;-81
2021/01/15 11:01:50;;;;;;;29.43;16.33;;;;;;;-4.73;75.51;100476.78;1635241;85;26492;-82
2021/01/15 11:04:18;;;;;;;29.70;15.53;;;;;;;-4.69;75.01;100491.08;1636290;85;25732;-81
2021/01/15 11:06:47;;;;;;;26.70;15.27;;;;;;;-4.65;74.76;100488.39;1632568;85;26363;-81
2021/01/15 11:09:18;;;;;;;27.00;14.40;;;;;;;-4.66;74.86;100491.84;1636846;85;26401;-81
2021/01/15 11:11:46;;;;;;;29.07;14.57;;;;;;;-4.64;74.27;100478.56;1638563;86;25806;-81
2021/01/15 11:14:17;;;;;;;21.80;12.37;;;;;;;-4.66;74.27;100479.10;1642017;85;25959;-81
2021/01/15 11:16:44;;;;;;;22.87;14.00;;;;;;;-4.69;73.63;100471.13;1630335;86;25863;-81
2021/01/15 11:19:12;;;;;;;25.83;12.97;;;;;;;-4.70;73.72;100465.62;1632220;86;26312;-81
2021/01/15 11:21:38;;;;;;;22.13;13.57;;;;;;;-4.66;74.71;100459.52;1636850;85;25782;-80
2021/01/15 11:24:07;;;;;;;22.25;12.85;;;;;;;-4.61;74.74;100466.95;1634576;85;25535;-80
2021/01/15 11:26:33;;;;;;;22.97;11.80;;;;;;;-4.61;74.01;100465.25;1626498;85;25890;-80
2021/01/15 11:29:03;;;;;;;19.13;11.43;;;;;;;-4.61;74.20;100457.61;1635837;85;25668;-80
2021/01/15 11:31:30;;;;;;;22.80;12.63;;;;;;;-4.61;74.04;100457.61;1635898;86;25766;-81
2021/01/15 11:33:57;;;;;;;20.08;12.20;;;;;;;-4.64;73.80;100450.52;1631057;86;25792;-81
2021/01/15 11:36:30;;;;;;;23.27;12.60;;;;;;;-4.67;73.91;100455.75;1636164;86;25942;-81
2021/01/15 11:38:52;;;;;;;21.42;12.53;;;;;;;-4.67;74.27;100448.10;1641677;85;25725;-81